sensor_id;sensor_type;location;lat;lon;timestamp;pressure;altitude;pressure_sealevel;temperature;humidity
15193;BME280;7697;51.630;7.484;2023-07-29T00:02:47;-17781.84;;;21.27;100.00
15193;BME280;7697;51.630;7.484;2023-07-29T00:07:50;-17781.50;;;21.26;100.00
15193;BME280;7697;51.630;7.484;2023-07-29T00:12:52;-17780.50;;;21.23;100.00
15193;BME280;7697;51.630;7.484;2023-07-29T00:18:01;-17777.13;;;21.13;100.00
15193;BME280;7697;51.630;7.484;2023-07-29T00:23:04;-17774.44;;;21.05;100.00
15193;BME280;7697;51.630;7.484;2023-07-29T00:28:06;-17775.13;;;21.07;100.00
15193;BME280;7697;51.630;7.484;2023-07-29T00:33:10;-17773.94;;;21.03;100.00
15193;BME280;7697;51.630;7.484;2023-07-29T00:38:13;-17774.44;;;21.05;100.00
15193;BME280;7697;51.630;7.484;2023-07-29T00:43:16;-17774.78;;;21.06;100.00
15193;BME280;7697;51.630;7.484;2023-07-29T00:48:23;-17773.09;;;21.01;100.00
15193;BME280;7697;51.630;7.484;2023-07-29T00:53:27;-17773.44;;;21.02;100.00
15193;BME280;7697;51.630;7.484;2023-07-29T00:58:31;-17772.28;;;20.98;100.00
15193;BME280;7697;51.630;7.484;2023-07-29T01:03:37;-17772.94;;;21.00;100.00
15193;BME280;7697;51.630;7.484;2023-07-29T01:08:45;-17774.44;;;21.05;100.00
15193;BME280;7697;51.630;7.484;2023-07-29T01:13:52;-17770.59;;;20.93;100.00
15193;BME280;7697;51.630;7.484;2023-07-29T01:19:03;-17769.06;;;20.88;100.00
15193;BME280;7697;51.630;7.484;2023-07-29T01:24:09;-17770.75;;;20.93;100.00
15193;BME280;7697;51.630;7.484;2023-07-29T01:29:12;-17768.41;;;20.86;100.00
15193;BME280;7697;51.630;7.484;2023-07-29T01:34:22;-17770.25;;;20.92;100.00
15193;BME280;7697;51.630;7.484;2023-07-29T01:39:29;-17767.91;;;20.85;100.00
15193;BME280;7697;51.630;7.484;2023-07-29T01:44:37;-17767.56;;;20.84;100.00
15193;BME280;7697;51.630;7.484;2023-07-29T01:49:43;-17767.56;;;20.84;100.00
15193;BME280;7697;51.630;7.484;2023-07-29T01:54:49;-17766.56;;;20.81;100.00
15193;BME280;7697;51.630;7.484;2023-07-29T01:59:52;-17768.06;;;20.85;100.00
15193;BME280;7697;51.630;7.484;2023-07-29T02:04:56;-17763.72;;;20.72;100.00
15193;BME280;7697;51.630;7.484;2023-07-29T02:10:01;-17761.88;;;20.67;100.00
15193;BME280;7697;51.630;7.484;2023-07-29T02:15:06;-17761.69;;;20.66;100.00
15193;BME280;7697;51.630;7.484;2023-07-29T02:20:12;-17757.66;;;20.54;100.00
15193;BME280;7697;51.630;7.484;2023-07-29T02:25:16;-17756.31;;;20.50;100.00
15193;BME280;7697;51.630;7.484;2023-07-29T02:30:22;-17756.00;;;20.49;100.00
15193;BME280;7697;51.630;7.484;2023-07-29T02:35:24;-17756.00;;;20.49;100.00
15193;BME280;7697;51.630;7.484;2023-07-29T02:40:29;-17756.00;;;20.49;100.00
15193;BME280;7697;51.630;7.484;2023-07-29T02:45:32;-17755.00;;;20.46;100.00
15193;BME280;7697;51.630;7.484;2023-07-29T02:50:35;-17753.97;;;20.43;100.00
15193;BME280;7697;51.630;7.484;2023-07-29T02:55:41;-17752.31;;;20.38;100.00
15193;BME280;7697;51.630;7.484;2023-07-29T03:00:44;-17751.97;;;20.37;100.00
15193;BME280;7697;51.630;7.484;2023-07-29T03:05:50;-17752.31;;;20.38;100.00
15193;BME280;7697;51.630;7.484;2023-07-29T03:11:05;-17751.97;;;20.37;100.00
15193;BME280;7697;51.630;7.484;2023-07-29T03:16:10;-17752.97;;;20.40;100.00
15193;BME280;7697;51.630;7.484;2023-07-29T03:21:13;-17750.44;;;20.32;100.00
15193;BME280;7697;51.630;7.484;2023-07-29T03:26:18;-17752.13;;;20.37;100.00
15193;BME280;7697;51.630;7.484;2023-07-29T03:31:21;-17753.66;;;20.42;100.00
15193;BME280;7697;51.630;7.484;2023-07-29T03:36:26;-17756.00;;;20.49;100.00
15193;BME280;7697;51.630;7.484;2023-07-29T03:41:36;-17755.50;;;20.47;100.00
15193;BME280;7697;51.630;7.484;2023-07-29T03:46:39;-17756.00;;;20.49;100.00
15193;BME280;7697;51.630;7.484;2023-07-29T03:51:43;-17757.16;;;20.52;100.00
15193;BME280;7697;51.630;7.484;2023-07-29T03:56:49;-17757.50;;;20.53;100.00
15193;BME280;7697;51.630;7.484;2023-07-29T04:01:52;-17757.66;;;20.54;100.00
15193;BME280;7697;51.630;7.484;2023-07-29T04:06:55;-17757.84;;;20.54;100.00
15193;BME280;7697;51.630;7.484;2023-07-29T04:12:00;-17760.19;;;20.62;100.00
15193;BME280;7697;51.630;7.484;2023-07-29T04:17:06;-17758.69;;;20.57;100.00
15193;BME280;7697;51.630;7.484;2023-07-29T04:22:09;-17760.84;;;20.64;100.00
15193;BME280;7697;51.630;7.484;2023-07-29T04:27:17;-17760.03;;;20.61;100.00
15193;BME280;7697;51.630;7.484;2023-07-29T04:32:20;-17758.34;;;20.56;100.00
15193;BME280;7697;51.630;7.484;2023-07-29T04:37:24;-17757.00;;;20.52;100.00
15193;BME280;7697;51.630;7.484;2023-07-29T04:42:30;-17757.66;;;20.54;100.00
15193;BME280;7697;51.630;7.484;2023-07-29T04:47:33;-17758.69;;;20.57;100.00
15193;BME280;7697;51.630;7.484;2023-07-29T04:52:36;-17759.34;;;20.59;100.00
15193;BME280;7697;51.630;7.484;2023-07-29T04:57:41;-17759.34;;;20.59;100.00
15193;BME280;7697;51.630;7.484;2023-07-29T05:02:44;-17760.34;;;20.62;100.00
15193;BME280;7697;51.630;7.484;2023-07-29T05:07:49;-17760.53;;;20.63;100.00
15193;BME280;7697;51.630;7.484;2023-07-29T05:12:54;-17759.50;;;20.59;100.00
15193;BME280;7697;51.630;7.484;2023-07-29T05:18:02;-17760.34;;;20.62;100.00
15193;BME280;7697;51.630;7.484;2023-07-29T05:23:05;-17758.34;;;20.56;100.00
15193;BME280;7697;51.630;7.484;2023-07-29T05:28:36;-17759.84;;;20.60;100.00
15193;BME280;7697;51.630;7.484;2023-07-29T05:33:43;-17760.53;;;20.63;100.00
15193;BME280;7697;51.630;7.484;2023-07-29T05:38:44;-17762.03;;;20.67;100.00
15193;BME280;7697;51.630;7.484;2023-07-29T05:43:48;-17761.69;;;20.66;100.00
15193;BME280;7697;51.630;7.484;2023-07-29T05:48:49;-17763.38;;;20.71;100.00
15193;BME280;7697;51.630;7.484;2023-07-29T05:53:51;-17764.38;;;20.74;100.00
15193;BME280;7697;51.630;7.484;2023-07-29T05:58:54;-17770.25;;;20.92;100.00
15193;BME280;7697;51.630;7.484;2023-07-29T06:03:56;-17771.09;;;20.94;100.00
15193;BME280;7697;51.630;7.484;2023-07-29T06:08:58;-17769.06;;;20.88;100.00
15193;BME280;7697;51.630;7.484;2023-07-29T06:14:01;-17769.06;;;20.88;100.00
15193;BME280;7697;51.630;7.484;2023-07-29T06:19:03;-17767.25;;;20.83;100.00
15193;BME280;7697;51.630;7.484;2023-07-29T06:24:04;-17766.06;;;20.79;100.00
15193;BME280;7697;51.630;7.484;2023-07-29T06:29:08;-17764.38;;;20.74;100.00
15193;BME280;7697;51.630;7.484;2023-07-29T06:34:09;-17762.03;;;20.67;100.00
15193;BME280;7697;51.630;7.484;2023-07-29T06:39:11;-17763.03;;;20.70;100.00
15193;BME280;7697;51.630;7.484;2023-07-29T06:44:14;-17760.69;;;20.63;100.00
15193;BME280;7697;51.630;7.484;2023-07-29T06:49:16;-17761.03;;;20.64;100.00
15193;BME280;7697;51.630;7.484;2023-07-29T06:54:18;-17756.31;;;20.50;100.00
15193;BME280;7697;51.630;7.484;2023-07-29T06:59:21;-17756.00;;;20.49;100.00
15193;BME280;7697;51.630;7.484;2023-07-29T07:04:24;-17754.16;;;20.43;99.76
15193;BME280;7697;51.630;7.484;2023-07-29T07:09:26;-17753.97;;;20.43;99.16
15193;BME280;7697;51.630;7.484;2023-07-29T07:14:29;-17754.66;;;20.45;98.98
15193;BME280;7697;51.630;7.484;2023-07-29T07:19:31;-17754.81;;;20.45;98.38
15193;BME280;7697;51.630;7.484;2023-07-29T07:24:33;-17753.31;;;20.41;97.56
15193;BME280;7697;51.630;7.484;2023-07-29T07:29:36;-17750.78;;;20.33;97.21
15193;BME280;7697;51.630;7.484;2023-07-29T07:34:38;-17754.47;;;20.44;98.02
15193;BME280;7697;51.630;7.484;2023-07-29T07:39:40;-17762.38;;;20.68;96.85
15193;BME280;7697;51.630;7.484;2023-07-29T07:44:43;-17771.09;;;20.94;94.72
15193;BME280;7697;51.630;7.484;2023-07-29T07:49:44;-17784.53;;;21.35;93.98
15193;BME280;7697;51.630;7.484;2023-07-29T07:54:51;-17799.97;;;21.82;92.61
15193;BME280;7697;51.630;7.484;2023-07-29T07:59:54;-17809.03;;;22.09;90.72
15193;BME280;7697;51.630;7.484;2023-07-29T08:04:56;-17815.72;;;22.29;88.93
15193;BME280;7697;51.630;7.484;2023-07-29T08:09:58;-17823.44;;;22.53;85.72
15193;BME280;7697;51.630;7.484;2023-07-29T08:15:01;-17837.22;;;22.94;86.50
15193;BME280;7697;51.630;7.484;2023-07-29T08:20:04;-17854.50;;;23.46;84.01
15193;BME280;7697;51.630;7.484;2023-07-29T08:25:06;-17867.25;;;23.85;82.08
15193;BME280;7697;51.630;7.484;2023-07-29T08:30:10;-17867.09;;;23.84;82.83
15193;BME280;7697;51.630;7.484;2023-07-29T08:35:12;-17865.06;;;23.78;81.99
15193;BME280;7697;51.630;7.484;2023-07-29T08:40:14;-17873.47;;;24.04;81.02
15193;BME280;7697;51.630;7.484;2023-07-29T08:45:17;-17890.06;;;24.54;79.80
15193;BME280;7697;51.630;7.484;2023-07-29T08:50:19;-17888.56;;;24.49;79.39
15193;BME280;7697;51.630;7.484;2023-07-29T08:55:22;-17897.78;;;24.77;76.89
15193;BME280;7697;51.630;7.484;2023-07-29T09:00:25;-17893.25;;;24.63;75.08
15193;BME280;7697;51.630;7.484;2023-07-29T09:05:27;-17892.91;;;24.62;76.65
15193;BME280;7697;51.630;7.484;2023-07-29T09:10:29;-17904.31;;;24.97;76.64
15193;BME280;7697;51.630;7.484;2023-07-29T09:15:33;-17915.41;;;25.30;73.00
15193;BME280;7697;51.630;7.484;2023-07-29T09:20:35;-17925.81;;;25.62;73.39
15193;BME280;7697;51.630;7.484;2023-07-29T09:25:37;-17933.84;;;25.86;72.29
15193;BME280;7697;51.630;7.484;2023-07-29T09:30:41;-17927.47;;;25.67;70.32
15193;BME280;7697;51.630;7.484;2023-07-29T09:35:44;-17922.44;;;25.52;71.15
15193;BME280;7697;51.630;7.484;2023-07-29T09:40:46;-17934.88;;;25.89;69.95
15193;BME280;7697;51.630;7.484;2023-07-29T09:45:51;-17956.16;;;26.53;70.17
15193;BME280;7697;51.630;7.484;2023-07-29T09:50:53;-17960.38;;;26.66;68.22
15193;BME280;7697;51.630;7.484;2023-07-29T09:55:55;-17958.00;;;26.59;67.69
15193;BME280;7697;51.630;7.484;2023-07-29T10:00:58;-17967.41;;;26.87;67.89
15193;BME280;7697;51.630;7.484;2023-07-29T10:06:01;-17967.41;;;26.87;67.20
15193;BME280;7697;51.630;7.484;2023-07-29T10:11:05;-17961.38;;;26.69;66.44
15193;BME280;7697;51.630;7.484;2023-07-29T10:16:10;-17953.31;;;26.45;68.11
15193;BME280;7697;51.630;7.484;2023-07-29T10:21:13;-17942.41;;;26.12;67.38
15193;BME280;7697;51.630;7.484;2023-07-29T10:26:19;-17927.81;;;25.68;70.05
15193;BME280;7697;51.630;7.484;2023-07-29T10:31:23;-17934.19;;;25.87;69.07
15193;BME280;7697;51.630;7.484;2023-07-29T10:36:25;-17938.38;;;26.00;71.00
15193;BME280;7697;51.630;7.484;2023-07-29T10:41:55;-17933.84;;;25.86;69.88
15193;BME280;7697;51.630;7.484;2023-07-29T10:46:59;-17929.84;;;25.74;70.21
15193;BME280;7697;51.630;7.484;2023-07-29T10:52:00;-17943.75;;;26.16;69.19
15193;BME280;7697;51.630;7.484;2023-07-29T10:57:03;-17954.00;;;26.47;68.19
15193;BME280;7697;51.630;7.484;2023-07-29T11:02:15;-17970.09;;;26.96;68.42
15193;BME280;7697;51.630;7.484;2023-07-29T11:07:23;-17993.91;;;27.68;65.85
15193;BME280;7697;51.630;7.484;2023-07-29T11:12:36;-17986.19;;;27.44;65.85
15193;BME280;7697;51.630;7.484;2023-07-29T11:17:41;-17978.81;;;27.22;67.13
15193;BME280;7697;51.630;7.484;2023-07-29T11:22:43;-17982.66;;;27.34;65.54
15193;BME280;7697;51.630;7.484;2023-07-29T11:27:45;-17968.06;;;26.89;66.75
15193;BME280;7697;51.630;7.484;2023-07-29T11:32:49;-17960.69;;;26.67;67.58
15193;BME280;7697;51.630;7.484;2023-07-29T11:37:52;-17983.00;;;27.35;66.40
15193;BME280;7697;51.630;7.484;2023-07-29T11:42:54;-17998.44;;;27.81;65.58
15193;BME280;7697;51.630;7.484;2023-07-29T11:47:57;-18014.19;;;28.29;63.87
15193;BME280;7697;51.630;7.484;2023-07-29T11:53:00;-18021.25;;;28.50;63.53
15193;BME280;7697;51.630;7.484;2023-07-29T11:58:02;-18021.06;;;28.50;63.62
15193;BME280;7697;51.630;7.484;2023-07-29T12:03:05;-18028.78;;;28.73;61.51
15193;BME280;7697;51.630;7.484;2023-07-29T12:08:09;-18031.16;;;28.80;61.38
15193;BME280;7697;51.630;7.484;2023-07-29T12:13:11;-18020.06;;;28.47;62.64
15193;BME280;7697;51.630;7.484;2023-07-29T12:18:14;-18009.00;;;28.13;64.94
15193;BME280;7697;51.630;7.484;2023-07-29T12:23:16;-17995.09;;;27.71;65.24
15193;BME280;7697;51.630;7.484;2023-07-29T12:28:18;-17977.31;;;27.17;64.05
15193;BME280;7697;51.630;7.484;2023-07-29T12:33:31;-17985.53;;;27.42;66.15
15193;BME280;7697;51.630;7.484;2023-07-29T12:38:35;-17990.06;;;27.56;65.04
15193;BME280;7697;51.630;7.484;2023-07-29T12:43:37;-17989.38;;;27.54;66.23
15193;BME280;7697;51.630;7.484;2023-07-29T12:48:40;-17987.03;;;27.47;64.16
15193;BME280;7697;51.630;7.484;2023-07-29T12:53:42;-17979.81;;;27.25;63.61
15193;BME280;7697;51.630;7.484;2023-07-29T12:58:44;-17975.97;;;27.13;63.80
15193;BME280;7697;51.630;7.484;2023-07-29T13:03:47;-17984.19;;;27.38;63.56
15193;BME280;7697;51.630;7.484;2023-07-29T13:08:49;-17996.41;;;27.75;62.58
15193;BME280;7697;51.630;7.484;2023-07-29T13:13:51;-17988.88;;;27.52;62.25
15193;BME280;7697;51.630;7.484;2023-07-29T13:18:54;-17992.22;;;27.62;63.41
15193;BME280;7697;51.630;7.484;2023-07-29T13:23:56;-17998.59;;;27.82;62.52
15193;BME280;7697;51.630;7.484;2023-07-29T13:28:57;-18000.63;;;27.88;61.31
15193;BME280;7697;51.630;7.484;2023-07-29T13:34:00;-18011.69;;;28.21;60.69
15193;BME280;7697;51.630;7.484;2023-07-29T13:39:02;-18023.41;;;28.57;60.32
15193;BME280;7697;51.630;7.484;2023-07-29T13:44:04;-18031.47;;;28.81;59.43
15193;BME280;7697;51.630;7.484;2023-07-29T13:49:07;-18023.75;;;28.58;59.34
15193;BME280;7697;51.630;7.484;2023-07-29T13:54:09;-18012.53;;;28.24;60.93
15193;BME280;7697;51.630;7.484;2023-07-29T13:59:11;-17999.44;;;27.84;60.74
15193;BME280;7697;51.630;7.484;2023-07-29T14:04:14;-17988.03;;;27.50;61.07
15193;BME280;7697;51.630;7.484;2023-07-29T14:09:15;-17976.47;;;27.15;62.66
15193;BME280;7697;51.630;7.484;2023-07-29T14:14:17;-17968.06;;;26.89;63.54
15193;BME280;7697;51.630;7.484;2023-07-29T14:19:20;-17961.03;;;26.68;65.50
15193;BME280;7697;51.630;7.484;2023-07-29T14:24:22;-17952.31;;;26.42;66.02
15193;BME280;7697;51.630;7.484;2023-07-29T14:29:25;-17937.22;;;25.96;69.09
15193;BME280;7697;51.630;7.484;2023-07-29T14:34:28;-17923.13;;;25.54;73.17
15193;BME280;7697;51.630;7.484;2023-07-29T14:39:34;-17898.97;;;24.81;77.22
15193;BME280;7697;51.630;7.484;2023-07-29T14:44:45;-17869.44;;;23.91;79.70
15193;BME280;7697;51.630;7.484;2023-07-29T14:49:51;-17849.97;;;23.33;82.05
15193;BME280;7697;51.630;7.484;2023-07-29T14:54:54;-17845.78;;;23.20;82.22
15193;BME280;7697;51.630;7.484;2023-07-29T14:59:56;-17838.38;;;22.98;82.76
15193;BME280;7697;51.630;7.484;2023-07-29T15:05:00;-17833.19;;;22.82;83.18
15193;BME280;7697;51.630;7.484;2023-07-29T15:10:03;-17836.38;;;22.92;83.68
15193;BME280;7697;51.630;7.484;2023-07-29T15:15:06;-17840.06;;;23.03;85.12
15193;BME280;7697;51.630;7.484;2023-07-29T15:20:11;-17839.91;;;23.02;85.78
15193;BME280;7697;51.630;7.484;2023-07-29T15:25:14;-17841.06;;;23.06;85.39
15193;BME280;7697;51.630;7.484;2023-07-29T15:30:21;-17852.31;;;23.40;87.00
15193;BME280;7697;51.630;7.484;2023-07-29T15:35:26;-17862.06;;;23.69;86.84
15193;BME280;7697;51.630;7.484;2023-07-29T15:40:28;-17864.22;;;23.76;83.46
15193;BME280;7697;51.630;7.484;2023-07-29T15:45:31;-17866.41;;;23.82;84.40
15193;BME280;7697;51.630;7.484;2023-07-29T15:50:35;-17869.25;;;23.91;84.67
15193;BME280;7697;51.630;7.484;2023-07-29T15:55:37;-17874.63;;;24.07;84.17
15193;BME280;7697;51.630;7.484;2023-07-29T16:00:40;-17881.50;;;24.28;84.41
15193;BME280;7697;51.630;7.484;2023-07-29T16:05:44;-17876.81;;;24.14;85.19
15193;BME280;7697;51.630;7.484;2023-07-29T16:10:48;-17880.34;;;24.24;85.26
15193;BME280;7697;51.630;7.484;2023-07-29T16:15:51;-17881.69;;;24.28;85.09
15193;BME280;7697;51.630;7.484;2023-07-29T16:20:57;-17878.16;;;24.18;84.94
15193;BME280;7697;51.630;7.484;2023-07-29T16:26:02;-17874.78;;;24.08;85.14
15193;BME280;7697;51.630;7.484;2023-07-29T16:31:04;-17864.41;;;23.76;86.13
15193;BME280;7697;51.630;7.484;2023-07-29T16:36:11;-17862.38;;;23.70;86.33
15193;BME280;7697;51.630;7.484;2023-07-29T16:41:13;-17858.03;;;23.57;86.32
15193;BME280;7697;51.630;7.484;2023-07-29T16:46:16;-17851.13;;;23.36;86.88
15193;BME280;7697;51.630;7.484;2023-07-29T16:51:22;-17851.97;;;23.39;87.56
15193;BME280;7697;51.630;7.484;2023-07-29T16:56:25;-17853.81;;;23.44;87.57
15193;BME280;7697;51.630;7.484;2023-07-29T17:01:30;-17850.47;;;23.34;87.77
15193;BME280;7697;51.630;7.484;2023-07-29T17:06:35;-17843.94;;;23.14;87.93
15193;BME280;7697;51.630;7.484;2023-07-29T17:11:38;-17847.44;;;23.25;88.48
15193;BME280;7697;51.630;7.484;2023-07-29T17:16:41;-17845.59;;;23.19;88.97
15193;BME280;7697;51.630;7.484;2023-07-29T17:21:46;-17847.78;;;23.26;89.16
15193;BME280;7697;51.630;7.484;2023-07-29T17:26:48;-17846.78;;;23.23;89.25
15193;BME280;7697;51.630;7.484;2023-07-29T17:31:55;-17848.78;;;23.29;89.47
15193;BME280;7697;51.630;7.484;2023-07-29T17:36:59;-17847.63;;;23.26;89.72
15193;BME280;7697;51.630;7.484;2023-07-29T17:42:02;-17846.59;;;23.23;89.50
15193;BME280;7697;51.630;7.484;2023-07-29T17:47:05;-17847.94;;;23.27;89.63
15193;BME280;7697;51.630;7.484;2023-07-29T17:52:10;-17848.63;;;23.29;89.73
15193;BME280;7697;51.630;7.484;2023-07-29T17:57:13;-17845.59;;;23.19;89.62
15193;BME280;7697;51.630;7.484;2023-07-29T18:02:15;-17845.94;;;23.20;90.42
15193;BME280;7697;51.630;7.484;2023-07-29T18:07:19;-17843.59;;;23.13;90.27
15193;BME280;7697;51.630;7.484;2023-07-29T18:12:22;-17843.25;;;23.12;91.07
15193;BME280;7697;51.630;7.484;2023-07-29T18:17:26;-17843.59;;;23.13;91.20
15193;BME280;7697;51.630;7.484;2023-07-29T18:22:31;-17840.56;;;23.04;91.40
15193;BME280;7697;51.630;7.484;2023-07-29T18:27:34;-17837.56;;;22.95;91.58
15193;BME280;7697;51.630;7.484;2023-07-29T18:32:38;-17837.72;;;22.96;91.91
15193;BME280;7697;51.630;7.484;2023-07-29T18:37:42;-17836.88;;;22.93;91.88
15193;BME280;7697;51.630;7.484;2023-07-29T18:42:45;-17832.34;;;22.79;92.29
15193;BME280;7697;51.630;7.484;2023-07-29T18:47:47;-17825.47;;;22.59;92.71
15193;BME280;7697;51.630;7.484;2023-07-29T18:52:52;-17824.47;;;22.56;93.36
15193;BME280;7697;51.630;7.484;2023-07-29T18:57:58;-17820.94;;;22.45;93.20
15193;BME280;7697;51.630;7.484;2023-07-29T19:03:01;-17818.75;;;22.38;93.43
15193;BME280;7697;51.630;7.484;2023-07-29T19:08:05;-17817.25;;;22.34;93.41
15193;BME280;7697;51.630;7.484;2023-07-29T19:13:09;-17813.56;;;22.23;93.76
15193;BME280;7697;51.630;7.484;2023-07-29T19:18:12;-17810.19;;;22.13;93.90
15193;BME280;7697;51.630;7.484;2023-07-29T19:23:16;-17808.19;;;22.06;94.10
15193;BME280;7697;51.630;7.484;2023-07-29T19:28:19;-17807.50;;;22.04;94.37
15193;BME280;7697;51.630;7.484;2023-07-29T19:33:22;-17804.16;;;21.94;94.43
15193;BME280;7697;51.630;7.484;2023-07-29T19:38:26;-17804.16;;;21.94;94.51
15193;BME280;7697;51.630;7.484;2023-07-29T19:43:30;-17803.81;;;21.93;94.91
15193;BME280;7697;51.630;7.484;2023-07-29T19:48:33;-17801.81;;;21.87;95.05
15193;BME280;7697;51.630;7.484;2023-07-29T19:53:38;-17795.59;;;21.68;95.32
15193;BME280;7697;51.630;7.484;2023-07-29T19:58:43;-17792.56;;;21.59;95.76
15193;BME280;7697;51.630;7.484;2023-07-29T20:03:46;-17790.72;;;21.54;95.95
15193;BME280;7697;51.630;7.484;2023-07-29T20:08:54;-17788.56;;;21.47;96.12
15193;BME280;7697;51.630;7.484;2023-07-29T20:13:57;-17785.53;;;21.38;96.01
15193;BME280;7697;51.630;7.484;2023-07-29T20:19:11;-17781.50;;;21.26;96.10
15193;BME280;7697;51.630;7.484;2023-07-29T20:24:17;-17778.81;;;21.18;95.72
15193;BME280;7697;51.630;7.484;2023-07-29T20:29:35;-17775.78;;;21.09;95.99
15193;BME280;7697;51.630;7.484;2023-07-29T20:35:19;-17774.78;;;21.06;96.50
15193;BME280;7697;51.630;7.484;2023-07-29T20:40:49;-17770.75;;;20.93;96.22
15193;BME280;7697;51.630;7.484;2023-07-29T20:46:04;-17766.41;;;20.80;96.82
15193;BME280;7697;51.630;7.484;2023-07-29T20:51:14;-17766.06;;;20.79;96.95
15193;BME280;7697;51.630;7.484;2023-07-29T20:56:25;-17761.69;;;20.66;97.05
15193;BME280;7697;51.630;7.484;2023-07-29T21:01:30;-17757.50;;;20.53;97.70
15193;BME280;7697;51.630;7.484;2023-07-29T21:06:38;-17756.66;;;20.51;98.22
15193;BME280;7697;51.630;7.484;2023-07-29T21:11:55;-17750.63;;;20.33;99.20
15193;BME280;7697;51.630;7.484;2023-07-29T21:17:00;-17749.44;;;20.29;99.05
15193;BME280;7697;51.630;7.484;2023-07-29T21:22:05;-17752.47;;;20.38;98.65
15193;BME280;7697;51.630;7.484;2023-07-29T21:27:23;-17751.28;;;20.35;98.69
15193;BME280;7697;51.630;7.484;2023-07-29T21:32:39;-17749.09;;;20.28;98.65
15193;BME280;7697;51.630;7.484;2023-07-29T21:37:43;-17750.94;;;20.34;98.43
15193;BME280;7697;51.630;7.484;2023-07-29T21:42:51;-17752.31;;;20.38;98.59
15193;BME280;7697;51.630;7.484;2023-07-29T21:48:10;-17749.44;;;20.29;98.22
15193;BME280;7697;51.630;7.484;2023-07-29T21:53:31;-17749.28;;;20.29;99.12
15193;BME280;7697;51.630;7.484;2023-07-29T21:58:47;-17748.28;;;20.26;99.13
15193;BME280;7697;51.630;7.484;2023-07-29T22:04:06;-17748.28;;;20.26;98.98
15193;BME280;7697;51.630;7.484;2023-07-29T22:09:15;-17747.75;;;20.24;98.82
15193;BME280;7697;51.630;7.484;2023-07-29T22:14:29;-17747.59;;;20.23;99.13
15193;BME280;7697;51.630;7.484;2023-07-29T22:19:38;-17745.25;;;20.16;99.12
15193;BME280;7697;51.630;7.484;2023-07-29T22:24:43;-17745.41;;;20.17;99.13
15193;BME280;7697;51.630;7.484;2023-07-29T22:29:48;-17743.25;;;20.10;99.21
15193;BME280;7697;51.630;7.484;2023-07-29T22:34:50;-17743.41;;;20.11;99.28
15193;BME280;7697;51.630;7.484;2023-07-29T22:39:56;-17742.56;;;20.08;99.64
15193;BME280;7697;51.630;7.484;2023-07-29T22:45:01;-17742.56;;;20.08;99.57
15193;BME280;7697;51.630;7.484;2023-07-29T22:50:07;-17738.88;;;19.97;100.00
15193;BME280;7697;51.630;7.484;2023-07-29T22:55:11;-17736.34;;;19.90;100.00
15193;BME280;7697;51.630;7.484;2023-07-29T23:00:26;-17735.50;;;19.87;99.96
15193;BME280;7697;51.630;7.484;2023-07-29T23:05:30;-17734.34;;;19.83;100.00
15193;BME280;7697;51.630;7.484;2023-07-29T23:10:32;-17729.81;;;19.70;100.00
15193;BME280;7697;51.630;7.484;2023-07-29T23:15:41;-17729.16;;;19.68;100.00
15193;BME280;7697;51.630;7.484;2023-07-29T23:20:44;-17728.31;;;19.65;100.00
15193;BME280;7697;51.630;7.484;2023-07-29T23:25:47;-17726.78;;;19.61;100.00
15193;BME280;7697;51.630;7.484;2023-07-29T23:30:56;-17725.78;;;19.58;100.00
15193;BME280;7697;51.630;7.484;2023-07-29T23:36:00;-17724.59;;;19.54;100.00
15193;BME280;7697;51.630;7.484;2023-07-29T23:41:03;-17723.09;;;19.50;100.00
15193;BME280;7697;51.630;7.484;2023-07-29T23:46:09;-17723.09;;;19.50;100.00
15193;BME280;7697;51.630;7.484;2023-07-29T23:51:12;-17720.75;;;19.42;100.00
15193;BME280;7697;51.630;7.484;2023-07-29T23:56:15;-17717.41;;;19.32;100.00
